Tiempo atmosférico en la estación meteorológica de Villadepera, Zamora (790 m.)



Fecha
DESCASC
Temp. máxima en grados centígrados (hora)
DESCASC
Temp. mínima en grados centígrados (hora)
DESCASC
Temp. media en grados centígrados
DESCASC
Racha de viento máxima en m/sg (hora)
DESCASC
Velocidad máxima media en intervalos de 10 minutos(hora)
DESCASC
Precipitaciones diarias en mm
DESCASC
Precipitaciones de 00:00 a 06:00 en mm
DESCASC
Precipitaciones de 06:00 a 12:00 en mm
DESCASC
Precipitaciones de 12:00 a 18:00 en mm
DESCASC
Precipitaciones de 18:00 a 24:00 en mm
DESCASC
23-06-2019 26.1 (17:50) 13.7 (07:40) 19.9 11.39 (12:20) 7.78 (11:10) 0 0 0 0 0
22-06-2019 29.1 (16:20) 11.4 (07:10) 20.3 13.06 (16:30) 8.89 (20:00) 0 0 0 0 0
21-06-2019 26.5 (19:20) 10.5 (06:20) 18.5 7.78 (00:40) 5.28 (00:40) 0 0 0 0 0
20-06-2019 25.3 (18:40) 11.6 (00:00) 18.4 12.22 (23:30) 7.78 (20:10) 0 0 0 0 0
19-06-2019 21.7 (16:50) 12.8 (00:00) 17.3 11.94 (16:50) 8.61 (17:00) 0.6 0 0.6 0 0
18-06-2019 22.8 (12:30) 12.1 (00:00) 17.4 18.61 (15:40) 13.61 (15:20) 0 0 0 0 0
17-06-2019 26.6 (14:20) 11.1 (00:00) 18.9 12.78 (21:50) 8.33 (21:40) 0 0 0 0 0
16-06-2019 27.8 (19:10) 8.7 (00:00) 18.2 10.28 (15:10) 6.39 (18:10) 0 0 0 0 0
15-06-2019 23.4 (19:20) 5.5 (00:00) 14.4 11.11 (13:50) 5.56 (00:10) 0 0 0 0 0
14-06-2019 19.9 (15:10) 7.2 (00:00) 13.5 13.89 (18:20) 10.28 (18:20) 0 0 0 0 0
13-06-2019 22.2 (19:10) 6.8 (00:00) 14.5 16.39 (17:00) 8.06 (17:30) 0 0 0 0 0
12-06-2019 22.4 (19:20) 4.9 (00:00) 13.6 10 (18:00) 5.83 (17:40) 0 0 0 0 0
11-06-2019 21.6 (19:20) 10.3 (00:00) 16 10.56 (12:10) 6.11 (12:10) 0 0 0 0 0
10-06-2019 22 (18:20) 6.9 (00:00) 14.5 12.22 (20:30) 8.61 (20:20) 0 0 0 0 0
09-06-2019 21.6 (16:50) 7.5 (00:00) 14.6 13.89 (17:50) 9.72 (17:50) 0 0 0 0 0
08-06-2019 22.7 (18:10) 5.1 (00:00) 13.9 11.11 (17:30) 5.56 (17:00) 0 0 0 0 0
07-06-2019 17.9 (19:10) 5.4 (00:00) 11.6 13.61 (09:40) 10.56 (09:40) 0 0 0 0 0
06-06-2019 19.4 (15:20) 3.7 (00:00) 11.5 20.56 (20:10) 15 (19:20) 4 0 0 0 4
05-06-2019 17.7 (17:10) 5.9 (00:00) 11.8 13.89 (15:30) 10 (17:40) 0 0 0 0 0
04-06-2019 19.4 (14:10) 10.6 (00:00) 15 13.61 (15:30) 10.56 (15:40) 0 0 0 0 0
03-06-2019 27.7 (18:10) 13.7 (00:00) 20.7 14.44 (18:50) 8.89 (19:20) 0 0 0 0 0
02-06-2019 30.1 (18:00) 14.3 (00:00) 22.2 16.11 (18:10) 7.5 (15:10) 0 0 0 0 0
01-06-2019 33 (19:10) 15.3 (00:00) 24.2 12.78 (15:00) 6.11 (23:00) 0 0 0 0 0
31-05-2019 31.9 (18:50) 15.1 (00:00) 23.5 9.17 (16:10) 6.11 (06:40) 0 0 0 0 0
30-05-2019 30.2 (19:10) 10.5 (00:00) 20.4 8.89 (18:20) 5.56 (18:20) 0 0 0 0 0
29-05-2019 25.5 (19:10) 6.8 (00:00) 16.2 10 (00:10) 6.11 (00:20) 0 0 0 0 0
28-05-2019 26.1 (19:10) 7.5 (00:00) 16.8 11.94 (01:10) 8.33 (20:30) 0 0 0 0 0

Gráficas

Temp. máximas Temp. mínimas Temp. medias Precipitaciones Rachas de viento máximas Velocidades máximas media en intervalos de 10 minutos

Datos horarios

Fecha y hora oficial Temperatura (ºC) Velocidad del viento (km/h) Dirección del viento Racha (km/h) Dirección de racha Precipitación (mm) Presión (hPa) Tendencia (hPa) Humedad (%)
2019-06-26 23:00:00 21.3 11 Oeste 17 Oeste 0 -- -- 56
2019-06-26 22:00:00 23 12 Oeste 23 Oeste 0 -- -- 52
2019-06-26 21:00:00 26.3 16 Oeste 33 Sudoeste 0 -- -- 44
2019-06-26 20:00:00 27.7 17 Sudoeste 36 Sudoeste 0 -- -- 40
2019-06-26 19:00:00 28.1 21 Sudoeste 40 Sudoeste 0 -- -- 40
2019-06-26 18:00:00 27 23 Sudoeste 45 Sudoeste 0 -- -- 42
2019-06-26 17:00:00 27.1 26 Sudoeste 42 Sudoeste 0 -- -- 44
2019-06-26 16:00:00 26.6 26 Sudoeste 41 Sudoeste 0 -- -- 46
2019-06-26 15:00:00 26.3 21 Sudoeste 41 Sudoeste 0 -- -- 50
2019-06-26 14:00:00 25.4 22 Sudoeste 37 Sudoeste 0 -- -- 52
2019-06-26 13:00:00 24.3 19 Sudoeste 42 Sudoeste 0 -- -- 56
2019-06-26 12:00:00 24.1 23 Sudoeste 37 Sudoeste 0 -- -- 54
2019-06-26 11:00:00 23 24 Sudoeste 35 Sudoeste 0 -- -- 59
2019-06-26 10:00:00 20.9 12 Sur 30 Sur 0 -- -- 71
2019-06-26 09:00:00 17.8 7 Sudeste 14 Este 0 -- -- 87
2019-06-26 08:00:00 16.5 7 Este 13 Este 0 -- -- 90
2019-06-26 07:00:00 14.2 6 Nordeste 9 Nordeste 0 -- -- 92
2019-06-26 06:00:00 15.9 3 Sudoeste 9 Sudoeste 0 -- -- 86
2019-06-26 05:00:00 15.2 6 Oeste 8 Sudoeste 0 -- -- 88
2019-06-26 04:00:00 15.6 6 Sudoeste 10 Nordeste 0 -- -- 86
2019-06-26 03:00:00 16.6 10 Nordeste 12 Nordeste 0 -- -- 83
2019-06-26 02:00:00 17 9 Norte 12 Norte 0 -- -- 80
2019-06-26 01:00:00 17.2 8 Norte 10 Norte 0 -- -- 80
2019-06-26 00:00:00 17.9 9 Norte 14 Norte 0 -- -- 77
2019-06-25 23:00:00 18.7 11 Norte 15 Norte 0 -- -- 73
2019-06-25 22:00:00 20 9 Norte 18 Noroeste 0 -- -- 70
2019-06-25 21:00:00 22.5 13 Noroeste 19 Noroeste 0 -- -- 62
2019-06-25 20:00:00 23.5 9 Noroeste 15 Oeste 0 -- -- 59
2019-06-25 19:00:00 24.7 8 Oeste 21 Oeste 0 -- -- 56
2019-06-25 18:00:00 24 13 Oeste 22 Oeste 0 -- -- 59
2019-06-25 17:00:00 23.1 9 Sudoeste 24 Oeste 0 -- -- 61
2019-06-25 16:00:00 21.6 12 Oeste 24 Oeste 0 -- -- 67
2019-06-25 15:00:00 19.3 11 Oeste 20 Oeste 0 -- -- 76
2019-06-25 14:00:00 17.9 11 Sudoeste 17 Sudoeste 0 -- -- 84
2019-06-25 13:00:00 16.2 7 Sur 11 Este 0.2 -- -- 91
2019-06-25 12:00:00 16 8 Este 18 Este 0 -- -- 92
2019-06-25 11:00:00 15 13 Este 20 Este 0.2 -- -- 96
2019-06-25 10:00:00 13.8 10 Este 15 Este 0.2 -- -- 99
2019-06-25 09:00:00 13.6 7 Nordeste 14 Nordeste 0 -- -- 99
2019-06-25 08:00:00 12.6 8 Nordeste 12 Nordeste 0 -- -- 100
2019-06-25 07:00:00 12 8 Nordeste 12 Norte 0 -- -- 100
2019-06-25 06:00:00 11.5 9 Norte 13 Norte 0 -- -- 100
2019-06-25 05:00:00 10.8 10 Nordeste 13 Norte 0 -- -- 99
2019-06-25 04:00:00 10.3 4 Norte 12 Norte 0 -- -- 99
2019-06-25 03:00:00 10.3 6 Norte 12 Noroeste 0 -- -- 99
2019-06-25 02:00:00 10.2 5 Norte 8 Noroeste 0 -- -- 97
2019-06-25 01:00:00 10.7 0 Calma 5 Este 0 -- -- 97
2019-06-25 00:00:00 11.1 4 Este 8 Oeste 0 -- -- 98
2019-06-24 23:00:00 11 6 Norte 12 Norte 0 -- -- 97
2019-06-24 22:00:00 11.4 0 Calma 5 Sur 0 -- -- 95
2019-06-24 21:00:00 11.3 3 Oeste 15 Sudeste 0 -- -- 96
2019-06-24 20:00:00 11 15 Sudoeste 22 Sudoeste 0 -- -- 97
2019-06-24 19:00:00 10.9 12 Sudoeste 34 Sudoeste 1.6 -- -- 96
2019-06-24 18:00:00 11.8 11 Sur 28 Sudoeste 5 -- -- 98
2019-06-24 17:00:00 12.5 16 Sudoeste 21 Sudoeste 7.4 -- -- 98
2019-06-24 16:00:00 12.6 14 Sudoeste 22 Sudoeste 2.8 -- -- 98
2019-06-24 15:00:00 12.7 13 Sudoeste 19 Sudoeste 6.4 -- -- 96
2019-06-24 14:00:00 13.7 9 Oeste 27 Oeste 0 -- -- 94
2019-06-24 13:00:00 14.4 21 Oeste 33 Oeste 0 -- -- 96
2019-06-24 12:00:00 15.9 11 Sudoeste 15 Sudoeste 0 -- -- 87
2019-06-24 11:00:00 15.8 7 Sur 12 Sur 0 -- -- 91
2019-06-24 10:00:00 15.8 8 Sur 14 Sur 1 -- -- 95
2019-06-24 09:00:00 15.4 6 Sudoeste 25 Oeste 9.8 -- -- 94
2019-06-24 08:00:00 16.2 5 Este 10 Este 0.2 -- -- 94
2019-06-24 07:00:00 16 3 Este 10 Sudeste 0 -- -- 94
2019-06-24 06:00:00 16.4 5 Sur 8 Sudeste 0.2 -- -- 93
2019-06-24 05:00:00 16.2 8 Sudeste 9 Este 0 -- -- 92
2019-06-24 04:00:00 16.6 3 Sudeste 9 Sudeste 0 -- -- 88
2019-06-24 03:00:00 16.7 3 Oeste 9 Sudeste 0 -- -- 89
2019-06-24 02:00:00 17.1 2 Oeste 10 Noroeste 0 -- -- 86
2019-06-24 01:00:00 17.3 6 Noroeste 14 Oeste 0 -- -- 87
2019-06-24 00:00:00 17.5 13 Oeste 15 Oeste 0 -- -- 85
2019-06-23 23:00:00 18.1 10 Oeste 17 Oeste 0 -- -- 82
2019-06-23 22:00:00 18.7 13 Noroeste 21 Noroeste 0 -- -- 78
2019-06-23 21:00:00 20.2 15 Noroeste 24 Oeste 0 -- -- 71
2019-06-23 20:00:00 22.9 17 Oeste 32 Sudoeste 0 -- -- 54
2019-06-23 19:00:00 23.7 24 Sudoeste 37 Sudoeste 0 -- -- 46
2019-06-23 18:00:00 25.8 24 Sudoeste 37 Sudoeste 0 -- -- 40
2019-06-23 17:00:00 24.2 22 Sudoeste 36 Sur 0 -- -- 41
2019-06-23 16:00:00 24.1 24 Sudoeste 39 Sudoeste 0 -- -- 41
2019-06-23 15:00:00 23.1 27 Sudoeste 38 Sudoeste 0 -- -- 46
2019-06-23 14:00:00 22.5 24 Sur 37 Sur 0 -- -- 49
2019-06-23 13:00:00 22.8 25 Sudoeste 41 Sudoeste 0 -- -- 46
2019-06-23 12:00:00 22.5 24 Sudoeste 40 Sudoeste 0 -- -- 41
2019-06-23 11:00:00 22.1 23 Sur 35 Sur 0 -- -- 33
2019-06-23 10:00:00 18.3 11 Sudeste 17 Sudeste 0 -- -- 51
2019-06-23 09:00:00 15.7 9 Este 14 Sudeste 0 -- -- 57
2019-06-23 08:00:00 13.9 5 Este 8 Este 0 -- -- 65
2019-06-23 07:00:00 14 2 Sudeste 6 Sur 0 -- -- 61
2019-06-23 06:00:00 14.2 0 Calma 18 Oeste 0 -- -- 59
2019-06-23 05:00:00 14.9 17 Oeste 24 Oeste 0 -- -- 59
2019-06-23 04:00:00 14.7 15 Oeste 17 Oeste 0 -- -- 61
2019-06-23 03:00:00 16 10 Oeste 14 Oeste 0 -- -- 58
2019-06-23 02:00:00 17.2 6 Oeste 11 Oeste 0 -- -- 57
2019-06-23 01:00:00 18.1 10 Oeste 19 Oeste 0 -- -- 54
2019-06-23 00:00:00 19.8 15 Oeste 24 Oeste 0 -- -- 48
2019-06-22 23:00:00 21.4 19 Oeste 29 Oeste 0 -- -- 39
2019-06-22 22:00:00 22.8 17 Oeste 36 Sudoeste 0 -- -- 36
2019-06-22 21:00:00 25.6 26 Sudoeste 37 Sudoeste 0 -- -- 19
2019-06-22 20:00:00 27.1 32 Sudoeste 44 Sudoeste 0 -- -- 18
2019-06-22 19:00:00 28.6 24 Sudoeste 44 Sudoeste 0 -- -- 22
2019-06-22 18:00:00 28.7 26 Sudoeste 44 Sur 0 -- -- 25
2019-06-22 17:00:00 29.1 27 Sudoeste 47 Sur 0 -- -- 26
2019-06-22 16:00:00 28.3 26 Sudoeste 46 Sudoeste 0 -- -- 27
2019-06-22 15:00:00 28.2 22 Sudoeste 43 Sudoeste 0 -- -- 28
2019-06-22 14:00:00 26.5 15 Sur 27 Sudoeste 0 -- -- 37
2019-06-22 13:00:00 24.4 10 Este 24 Sudeste 0 -- -- 39
2019-06-22 12:00:00 21.2 15 Este 28 Este 0 -- -- 51
2019-06-22 11:00:00 18.9 18 Este 27 Este 0 -- -- 57
2019-06-22 10:00:00 15.7 18 Este 28 Nordeste 0 -- -- 69
2019-06-22 09:00:00 14.7 20 Este 27 Este 0 -- -- 72
2019-06-22 08:00:00 12.4 13 Nordeste 23 Nordeste 0 -- -- 80
2019-06-22 07:00:00 11.5 16 Nordeste 22 Nordeste 0 -- -- 82
2019-06-22 06:00:00 11.6 14 Nordeste 19 Nordeste 0 -- -- 82
2019-06-22 05:00:00 12.3 14 Nordeste 19 Nordeste 0 -- -- 79
2019-06-22 04:00:00 13 12 Nordeste 21 Este 0 -- -- 73
2019-06-22 03:00:00 13.6 12 Este 17 Este 0 -- -- 68
2019-06-22 02:00:00 14.8 12 Este 15 Este 0 -- -- 60
2019-06-22 01:00:00 16.3 10 Este 14 Este 0 -- -- 51
2019-06-22 00:00:00 17.5 11 Este 17 Sudeste 0 -- -- 47
2019-06-21 23:00:00 18.1 12 Sudeste 18 Sudeste 0 -- -- 47
2019-06-21 22:00:00 19.8 15 Sudeste 19 Sudeste 0 -- -- 44
2019-06-21 21:00:00 22.9 4 Sur 15 Sur 0 -- -- 37
2019-06-21 20:00:00 23.9 3 Noroeste 18 Este 0 -- -- 35
2019-06-21 19:00:00 24.6 14 Este 22 Este 0 -- -- 35
2019-06-21 18:00:00 23.6 7 Este 21 Sudeste 0 -- -- 36
2019-06-21 17:00:00 23.9 7 Norte 23 Este 0 -- -- 37
2019-06-21 16:00:00 21.8 5 Nordeste 27 Sudeste 0 -- -- 40
2019-06-21 15:00:00 21.7 14 Nordeste 26 Este 0 -- -- 43
2019-06-21 14:00:00 19.7 9 Este 19 Nordeste 0 -- -- 50
2019-06-21 13:00:00 19.8 12 Este 22 Nordeste 0 -- -- 53
2019-06-21 12:00:00 17.9 14 Este 23 Este 0 -- -- 57
2019-06-21 11:00:00 17.6 13 Nordeste 28 Este 0 -- -- 59
2019-06-21 10:00:00 15.7 14 Este 24 Este 0 -- -- 73
2019-06-21 09:00:00 14 10 Nordeste 15 Nordeste 0 -- -- 81
2019-06-21 08:00:00 11.6 10 Norte 13 Norte 0 -- -- 91
2019-06-21 07:00:00 10.5 9 Norte 12 Nordeste 0 -- -- 94
2019-06-21 06:00:00 10.8 9 Norte 13 Norte 0 -- -- 94
2019-06-21 05:00:00 11.5 9 Norte 13 Nordeste 0 -- -- 92
2019-06-21 04:00:00 11.4 10 Nordeste 12 Norte 0 -- -- 91
2019-06-21 03:00:00 12 3 Nordeste 15 Nordeste 0 -- -- 89
2019-06-21 02:00:00 12.8 12 Nordeste 24 Nordeste 0 -- -- 88
2019-06-21 01:00:00 12.9 14 Nordeste 28 Nordeste 0 -- -- 86
2019-06-21 00:00:00 13.5 16 Nordeste 44 Nordeste 0 -- -- 83
2019-06-20 23:00:00 14.4 23 Nordeste 40 Nordeste 0 -- -- 81
2019-06-20 22:00:00 17.3 23 Nordeste 34 Nordeste 0 -- -- 63
2019-06-20 21:00:00 20.6 23 Oeste 42 Oeste 0 -- -- 52
2019-06-20 20:00:00 23.7 24 Oeste 39 Oeste 0 -- -- 40
2019-06-20 19:00:00 24.6 21 Oeste 33 Sudoeste 0 -- -- 40
2019-06-20 18:00:00 24.8 15 Oeste 37 Oeste 0 -- -- 38
2019-06-20 17:00:00 24.6 17 Oeste 28 Sudoeste 0 -- -- 39
2019-06-20 16:00:00 24.3 12 Oeste 28 Sudoeste 0 -- -- 42
2019-06-20 15:00:00 22.2 5 Nordeste 17 Oeste 0 -- -- 49
2019-06-20 14:00:00 22.4 7 Sur 15 Sur 0 -- -- 51
2019-06-20 13:00:00 20.2 7 Nordeste 20 Noroeste 0 -- -- 58
2019-06-20 12:00:00 18.2 6 Norte 13 Norte 0 -- -- 64
2019-06-20 11:00:00 17.4 10 Nordeste 18 Nordeste 0 -- -- 68
2019-06-20 10:00:00 14.6 11 Nordeste 16 Nordeste 0 -- -- 77
2019-06-20 09:00:00 13.6 13 Nordeste 17 Nordeste 0 -- -- 80
2019-06-20 08:00:00 12.4 5 Este 9 Este 0 -- -- 86
2019-06-20 07:00:00 11.6 3 Este 7 Noroeste 0 -- -- 86
2019-06-20 06:00:00 11.8 0 Calma 8 Este 0 -- -- 85
2019-06-20 05:00:00 12.3 6 Oeste 12 Noroeste 0 -- -- 83
2019-06-20 04:00:00 12.8 7 Oeste 10 Oeste 0 -- -- 82
2019-06-20 03:00:00 13.1 8 Oeste 12 Oeste 0 -- -- 80
2019-06-20 02:00:00 12.7 11 Oeste 17 Oeste 0 -- -- 79
2019-06-20 01:00:00 13.5 14 Oeste 17 Oeste 0 -- -- 75
2019-06-20 00:00:00 14.9 11 Noroeste 19 Noroeste 0 -- -- 69
2019-06-19 23:00:00 15.4 12 Noroeste 17 Noroeste 0 -- -- 68
2019-06-19 22:00:00 16.8 12 Noroeste 26 Oeste 0 -- -- 63
2019-06-19 21:00:00 19.8 18 Oeste 32 Oeste 0 -- -- 55
2019-06-19 20:00:00 20.7 19 Oeste 37 Oeste 0 -- -- 52
2019-06-19 19:00:00 20.8 20 Sudoeste 39 Sudoeste 0 -- -- 55
2019-06-19 18:00:00 21.2 31 Sudoeste 43 Sudoeste 0 -- -- 53
2019-06-19 17:00:00 21.4 31 Oeste 43 Sudoeste 0 -- -- 55
2019-06-19 16:00:00 20.3 23 Sudoeste 38 Sudoeste 0 -- -- 63
2019-06-19 15:00:00 18.6 16 Oeste 37 Oeste 0 -- -- 71
2019-06-19 14:00:00 17.4 22 Sudoeste 32 Sudoeste 0 -- -- 79
2019-06-19 13:00:00 16.4 21 Sudoeste 30 Sudoeste 0 -- -- 85
2019-06-19 12:00:00 15.7 22 Sudoeste 27 Sudoeste 0 -- -- 86
2019-06-19 11:00:00 15.5 17 Sudoeste 24 Sudoeste 0 -- -- 91
2019-06-19 10:00:00 14.4 16 Sudoeste 25 Sudoeste 0 -- -- 96
2019-06-19 09:00:00 13.6 18 Oeste 33 Sudoeste 0 -- -- 98
2019-06-19 08:00:00 13.7 16 Sudoeste 23 Sudoeste 0.6 -- -- 95
2019-06-19 07:00:00 14.1 12 Sudoeste 21 Sudoeste 0 -- -- 91
2019-06-19 06:00:00 14.1 15 Sudoeste 28 Sudoeste 0 -- -- 90
2019-06-19 05:00:00 14.1 21 Sudoeste 28 Oeste 0 -- -- 90
2019-06-19 04:00:00 14.3 16 Sudoeste 26 Sudoeste 0 -- -- 89
2019-06-19 03:00:00 13.5 17 Sudoeste 20 Sudoeste 0 -- -- 93
2019-06-19 02:00:00 13.5 10 Sudoeste 24 Sudoeste 0 -- -- 87
2019-06-19 01:00:00 15.4 22 Sudoeste 31 Sudoeste 0 -- -- 82
2019-06-19 00:00:00 16 15 Oeste 31 Sudoeste 0 -- -- 79
2019-06-18 23:00:00 16.6 24 Sudoeste 35 Sudoeste 0 -- -- 74
2019-06-18 22:00:00 17.3 24 Sudoeste 32 Sudoeste 0 -- -- 71
2019-06-18 21:00:00 18.2 27 Sudoeste 42 Oeste 0 -- -- 66
2019-06-18 20:00:00 18.8 24 Oeste 44 Oeste 0 -- -- 65
2019-06-18 19:00:00 20.1 36 Sudoeste 60 Sudoeste 0 -- -- 56
2019-06-18 18:00:00 21.4 41 Sudoeste 62 Sudoeste 0 -- -- 49
2019-06-18 17:00:00 22.1 38 Sudoeste 61 Sur 0 -- -- 47
2019-06-18 16:00:00 20.7 42 Sudoeste 67 Sudoeste 0 -- -- 54
2019-06-18 15:00:00 20.1 37 Sudoeste 55 Sudoeste 0 -- -- 62
2019-06-18 14:00:00 19.8 32 Sudoeste 58 Oeste 0 -- -- 62
2019-06-18 13:00:00 22 33 Sudoeste 53 Sudoeste 0 -- -- 43
2019-06-18 12:00:00 21.9 33 Sudoeste 50 Sudoeste 0 -- -- 38
2019-06-18 11:00:00 20.3 26 Sudoeste 37 Sudoeste 0 -- -- 41
2019-06-18 10:00:00 18.5 23 Sudoeste 35 Sudoeste 0 -- -- 37
2019-06-18 09:00:00 16.4 20 Sudoeste 31 Sudoeste 0 -- -- 40
2019-06-18 08:00:00 12.8 17 Sudoeste 21 Sudoeste 0 -- -- 62
2019-06-18 07:00:00 12.1 15 Sudoeste 19 Sudoeste 0 -- -- 65
2019-06-18 06:00:00 13.1 15 Sudoeste 20 Sudoeste 0 -- -- 56
2019-06-18 05:00:00 14.4 11 Sur 15 Sur 0 -- -- 51
2019-06-18 04:00:00 15.4 4 Sudoeste 7 Sur 0 -- -- 47
2019-06-18 03:00:00 15.9 7 Sudeste 11 Sudeste 0 -- -- 47
2019-06-18 02:00:00 16.6 5 Nordeste 9 Nordeste 0 -- -- 45
2019-06-18 01:00:00 16.9 8 Nordeste 14 Norte 0 -- -- 45
2019-06-18 00:00:00 17.1 13 Norte 17 Nordeste 0 -- -- 46
2019-06-17 23:00:00 17.8 10 Noroeste 22 Oeste 0 -- -- 45
2019-06-17 22:00:00 19.3 13 Noroeste 46 Oeste 0 -- -- 39
2019-06-17 21:00:00 20 15 Noroeste 24 Noroeste 0 -- -- 37
2019-06-17 20:00:00 21.6 13 Oeste 27 Sudoeste 0 -- -- 34
2019-06-17 19:00:00 23.2 21 Sudoeste 33 Sudoeste 0 -- -- 32
2019-06-17 18:00:00 24.6 16 Sudoeste 37 Sudoeste 0 -- -- 28
2019-06-17 17:00:00 24.9 24 Sudoeste 40 Sudoeste 0 -- -- 24
2019-06-17 16:00:00 25.1 25 Sudoeste 41 Sudoeste 0 -- -- 25
2019-06-17 15:00:00 25.9 27 Sudoeste 44 Sudoeste 0 -- -- 24
2019-06-17 14:00:00 26.2 28 Sudoeste 44 Sur 0 -- -- 26
2019-06-17 13:00:00 25.6 24 Sudoeste 41 Sur 0 -- -- 27
2019-06-17 12:00:00 24 23 Sudoeste 35 Sudoeste 0 -- -- 30
2019-06-17 11:00:00 22.1 19 Sudoeste 33 Sudoeste 0 -- -- 38
2019-06-17 10:00:00 19.2 8 Sudeste 11 Sudeste 0 -- -- 56
2019-06-17 09:00:00 15.9 2 Este 6 Sudoeste 0 -- -- 72
2019-06-17 08:00:00 12.2 4 Sudoeste 10 Sudoeste 0 -- -- 84
2019-06-17 07:00:00 11.3 8 Sudoeste 10 Sudoeste 0 -- -- 85
2019-06-17 06:00:00 11.3 8 Sudoeste 15 Sudoeste 0 -- -- 81
2019-06-17 05:00:00 12.4 14 Oeste 14 Sudoeste 0 -- -- 77
2019-06-17 04:00:00 13 14 Sudoeste 15 Sudoeste 0 -- -- 74
2019-06-17 03:00:00 14.1 15 Oeste 19 Oeste 0 -- -- 69
2019-06-17 02:00:00 15.4 13 Oeste 17 Oeste 0 -- -- 57
2019-06-17 01:00:00 16.6 15 Oeste 20 Oeste 0 -- -- 50
2019-06-17 00:00:00 19.2 6 Oeste 11 Oeste 0 -- -- 36
2019-06-16 23:00:00 19.8 10 Oeste 13 Oeste 0 -- -- 35
2019-06-16 22:00:00 20.9 13 Noroeste 20 Oeste 0 -- -- 33
2019-06-16 21:00:00 23.5 11 Oeste 25 Oeste 0 -- -- 29
2019-06-16 20:00:00 26.2 15 Sudoeste 29 Oeste 0 -- -- 25
2019-06-16 19:00:00 27.2 13 Oeste 36 Oeste 0 -- -- 22
2019-06-16 18:00:00 26.8 16 Sudoeste 30 Sudoeste 0 -- -- 23
2019-06-16 17:00:00 26.5 15 Sur 29 Sudoeste 0 -- -- 25
2019-06-16 16:00:00 25 19 Sudoeste 37 Sur 0 -- -- 26
2019-06-16 15:00:00 24.7 13 Sudoeste 30 Sudeste 0 -- -- 27
2019-06-16 14:00:00 24.2 13 Oeste 29 Sudoeste 0 -- -- 29
2019-06-16 13:00:00 22.5 10 Este 24 Este 0 -- -- 34
2019-06-16 12:00:00 20.8 17 Este 24 Este 0 -- -- 42
2019-06-16 11:00:00 18.1 14 Nordeste 22 Nordeste 0 -- -- 52
2019-06-16 10:00:00 15.4 15 Nordeste 26 Este 0 -- -- 61
2019-06-16 09:00:00 12.8 15 Nordeste 23 Nordeste 0 -- -- 70
2019-06-16 08:00:00 10.6 14 Nordeste 21 Nordeste 0 -- -- 78
2019-06-16 07:00:00 8.8 14 Nordeste 20 Nordeste 0 -- -- 85
2019-06-16 06:00:00 9.1 14 Nordeste 17 Nordeste 0 -- -- 82
2019-06-16 05:00:00 10 13 Nordeste 19 Nordeste 0 -- -- 74
2019-06-16 04:00:00 11.1 12 Nordeste 19 Nordeste 0 -- -- 69
2019-06-16 03:00:00 12 12 Norte 13 Norte 0 -- -- 67
2019-06-16 02:00:00 12.2 10 Norte 14 Noroeste 0 -- -- 64
2019-06-16 01:00:00 13.3 12 Noroeste 16 Noroeste 0 -- -- 59
2019-06-16 00:00:00 14 14 Oeste 16 Oeste 0 -- -- 54
2019-06-15 23:00:00 15.5 9 Oeste 13 Oeste 0 -- -- 47
2019-06-15 22:00:00 17 10 Oeste 16 Oeste 0 -- -- 43
2019-06-15 21:00:00 19.7 15 Oeste 25 Oeste 0 -- -- 37
2019-06-15 20:00:00 21 16 Oeste 31 Oeste 0 -- -- 35
2019-06-15 19:00:00 22.4 13 Oeste 27 Sudoeste 0 -- -- 33
2019-06-15 18:00:00 22.1 18 Oeste 33 Sudoeste 0 -- -- 31
2019-06-15 17:00:00 21.6 13 Oeste 30 Oeste 0 -- -- 33
2019-06-15 16:00:00 20.8 13 Sudoeste 32 Oeste 0 -- -- 35
2019-06-15 15:00:00 19.7 14 Sudoeste 29 Oeste 0 -- -- 39
2019-06-15 14:00:00 18.5 11 Oeste 40 Sudoeste 0 -- -- 40
2019-06-15 13:00:00 17.5 13 Sudoeste 28 Sudoeste 0 -- -- 45
2019-06-15 12:00:00 15.9 13 Oeste 30 Oeste 0 -- -- 50
2019-06-15 11:00:00 14 13 Oeste 22 Oeste 0 -- -- 58
2019-06-15 10:00:00 12.6 14 Oeste 24 Oeste 0 -- -- 66
2019-06-15 09:00:00 10.2 16 Oeste 23 Oeste 0 -- -- 80
2019-06-15 08:00:00 7.4 12 Oeste 17 Oeste 0 -- -- 90
2019-06-15 07:00:00 5.8 16 Oeste 21 Oeste 0 -- -- 92
2019-06-15 06:00:00 5.9 18 Oeste 22 Oeste 0 -- -- 91
2019-06-15 05:00:00 6.4 19 Sudoeste 23 Sudoeste 0 -- -- 90
2019-06-15 04:00:00 6.6 19 Sudoeste 22 Sudoeste 0 -- -- 87
2019-06-15 03:00:00 6.8 17 Sudoeste 20 Sudoeste 0 -- -- 84
2019-06-15 02:00:00 7.5 13 Oeste 18 Oeste 0 -- -- 78
2019-06-15 01:00:00 8.8 15 Oeste 27 Oeste 0 -- -- 73
2019-06-15 00:00:00 10.9 23 Oeste 37 Oeste 0 -- -- 66
2019-06-14 23:00:00 12.2 26 Oeste 36 Sudoeste 0 -- -- 61
2019-06-14 22:00:00 12.8 25 Oeste 50 Oeste 0 -- -- 59
2019-06-14 21:00:00 14.3 30 Oeste 43 Sudoeste 0 -- -- 52
2019-06-14 20:00:00 17.2 32 Oeste 47 Sudoeste 0 -- -- 37
2019-06-14 19:00:00 18.4 29 Oeste 50 Oeste 0 -- -- 35
2019-06-14 18:00:00 18.8 34 Oeste 48 Oeste 0 -- -- 36
2019-06-14 17:00:00 19 29 Oeste 48 Oeste 0 -- -- 37
2019-06-14 16:00:00 19.5 32 Oeste 47 Sudoeste 0 -- -- 38
2019-06-14 15:00:00 19.5 25 Oeste 43 Oeste 0 -- -- 38
2019-06-14 14:00:00 19.2 17 Sudoeste 31 Sudoeste 0 -- -- 41
2019-06-14 13:00:00 18.8 16 Sudoeste 25 Oeste 0 -- -- 45
2019-06-14 12:00:00 17 5 Este 12 Oeste 0 -- -- 53
2019-06-14 11:00:00 15.1 5 Sur 13 Sudoeste 0 -- -- 61
2019-06-14 10:00:00 13.1 4 Este 17 Nordeste 0 -- -- 69
2019-06-14 09:00:00 10.7 11 Nordeste 15 Nordeste 0 -- -- 74
2019-06-14 08:00:00 8.4 10 Norte 12 Norte 0 -- -- 79
2019-06-14 07:00:00 7.3 9 Norte 12 Norte 0 -- -- 80
2019-06-14 06:00:00 7.7 10 Nordeste 14 Nordeste 0 -- -- 77
2019-06-14 05:00:00 9 7 Este 12 Nordeste 0 -- -- 66
2019-06-14 04:00:00 9.2 4 Sur 5 Este 0 -- -- 64
2019-06-14 03:00:00 10.9 2 Noroeste 7 Norte 0 -- -- 59
2019-06-14 02:00:00 10.6 5 Noroeste 13 Oeste 0 -- -- 60
2019-06-14 01:00:00 11.2 13 Oeste 14 Oeste 0 -- -- 58
2019-06-14 00:00:00 12.4 12 Noroeste 17 Noroeste 0 -- -- 53
2019-06-13 23:00:00 13.4 12 Noroeste 20 Oeste 0 -- -- 50
2019-06-13 22:00:00 15.6 13 Noroeste 26 Oeste 0 -- -- 43
2019-06-13 21:00:00 18.4 19 Oeste 35 Oeste 0 -- -- 36
2019-06-13 20:00:00 20.1 22 Oeste 39 Oeste 0 -- -- 31
2019-06-13 19:00:00 21.3 20 Oeste 41 Oeste 0 -- -- 30
2019-06-13 18:00:00 21.3 20 Oeste 44 Oeste 0 -- -- 30
2019-06-13 17:00:00 20.9 25 Sudoeste 59 Sudoeste 0 -- -- 31
2019-06-13 16:00:00 20.4 20 Sudoeste 37 Oeste 0 -- -- 35
2019-06-13 15:00:00 20.2 21 Sudoeste 43 Sudoeste 0 -- -- 35
2019-06-13 14:00:00 18.6 22 Sudoeste 36 Sudoeste 0 -- -- 33
2019-06-13 13:00:00 17.6 17 Sudoeste 28 Sudoeste 0 -- -- 41
2019-06-13 12:00:00 15.9 8 Sudoeste 20 Sudoeste 0 -- -- 48
2019-06-13 11:00:00 14.2 6 Sudoeste 13 Sudoeste 0 -- -- 55
2019-06-13 10:00:00 12.5 6 Nordeste 14 Este 0 -- -- 62
2019-06-13 09:00:00 11.1 5 Este 13 Nordeste 0 -- -- 67
2019-06-13 08:00:00 9.4 0 Calma 8 Norte 0 -- -- 72
2019-06-13 07:00:00 7 6 Norte 8 Norte 0 -- -- 72
2019-06-13 06:00:00 8.1 3 Norte 7 Nordeste 0 -- -- 67
2019-06-13 05:00:00 8.3 6 Nordeste 13 Nordeste 0 -- -- 66
2019-06-13 04:00:00 9.2 8 Nordeste 14 Nordeste 0 -- -- 62
2019-06-13 03:00:00 8.6 3 Nordeste 14 Este 0 -- -- 62
2019-06-13 02:00:00 10.5 8 Noroeste 13 Norte 0 -- -- 57
2019-06-13 01:00:00 10.8 9 Norte 15 Noroeste 0 -- -- 55
2019-06-13 00:00:00 11.6 13 Noroeste 18 Noroeste 0 -- -- 51
2019-06-12 23:00:00 13 13 Noroeste 18 Noroeste 0 -- -- 45
2019-06-12 22:00:00 14.7 11 Noroeste 24 Oeste 0 -- -- 38
2019-06-12 21:00:00 17.8 18 Oeste 27 Oeste 0 -- -- 31
2019-06-12 20:00:00 19.4 13 Oeste 30 Oeste 0 -- -- 28
2019-06-12 19:00:00 20.7 19 Oeste 33 Oeste 0 -- -- 21
2019-06-12 18:00:00 20.3 13 Oeste 36 Oeste 0 -- -- 24
2019-06-12 17:00:00 19.8 5 Oeste 30 Oeste 0 -- -- 28
2019-06-12 16:00:00 19.7 13 Oeste 26 Sudoeste 0 -- -- 27
2019-06-12 15:00:00 18.1 7 Noroeste 30 Sudoeste 0 -- -- 29
2019-06-12 14:00:00 17.3 11 Sudoeste 23 Sudoeste 0 -- -- 32
2019-06-12 13:00:00 15.8 7 Sur 25 Sur 0 -- -- 36
2019-06-12 12:00:00 14.4 4 Este 19 Nordeste 0 -- -- 39
2019-06-12 11:00:00 13.2 10 Nordeste 27 Este 0 -- -- 43
2019-06-12 10:00:00 10.9 4 Nordeste 12 Este 0 -- -- 55
2019-06-12 09:00:00 8.8 4 Este 9 Este 0 -- -- 64
2019-06-12 08:00:00 6.9 5 Nordeste 8 Nordeste 0 -- -- 70
2019-06-12 07:00:00 4.9 5 Este 7 Este 0 -- -- 75
2019-06-12 06:00:00 5 6 Este 9 Este 0 -- -- 74
2019-06-12 05:00:00 5.9 7 Este 10 Este 0 -- -- 70
2019-06-12 04:00:00 6.5 6 Este 13 Este 0 -- -- 65
2019-06-12 03:00:00 7.6 9 Nordeste 19 Este 0 -- -- 62
2019-06-12 02:00:00 8.4 10 Este 22 Este 0 -- -- 59
2019-06-12 01:00:00 9.3 10 Nordeste 24 Nordeste 0 -- -- 55
2019-06-12 00:00:00 10.4 13 Nordeste 26 Nordeste 0 -- -- 54
2019-06-11 23:00:00 12.1 16 Nordeste 27 Nordeste 0 -- -- 47
2019-06-11 22:00:00 14.3 19 Nordeste 27 Nordeste 0 -- -- 41
2019-06-11 21:00:00 17.1 15 Nordeste 25 Nordeste 0 -- -- 32
2019-06-11 20:00:00 18.7 15 Nordeste 27 Nordeste 0 -- -- 29
2019-06-11 19:00:00 20.2 8 Norte 29 Este 0 -- -- 27
2019-06-11 18:00:00 19.2 17 Norte 32 Nordeste 0 -- -- 28
2019-06-11 17:00:00 19.3 17 Nordeste 36 Nordeste 0 -- -- 28
2019-06-11 16:00:00 18.1 20 Nordeste 36 Norte 0 -- -- 28
2019-06-11 15:00:00 17.9 15 Norte 33 Norte 0 -- -- 29
2019-06-11 14:00:00 17.2 16 Norte 36 Norte 0 -- -- 32
2019-06-11 13:00:00 16.7 16 Nordeste 38 Nordeste 0 -- -- 35
2019-06-11 12:00:00 14.6 15 Norte 33 Nordeste 0 -- -- 43
2019-06-11 11:00:00 14.3 18 Norte 34 Nordeste 0 -- -- 44
2019-06-11 10:00:00 13.4 17 Norte 25 Norte 0 -- -- 48
2019-06-11 09:00:00 11 13 Nordeste 19 Nordeste 0 -- -- 56
2019-06-11 08:00:00 10.5 11 Nordeste 19 Nordeste 0 -- -- 58
2019-06-11 07:00:00 10.5 7 Nordeste 13 Nordeste 0 -- -- 62
2019-06-11 06:00:00 10.6 0 Calma 10 Oeste 0 -- -- 71
2019-06-11 05:00:00 10.7 6 Oeste 12 Oeste 0 -- -- 70
2019-06-11 04:00:00 10.9 8 Oeste 12 Oeste 0 -- -- 68
2019-06-11 03:00:00 11.4 9 Noroeste 19 Oeste 0 -- -- 65
2019-06-11 02:00:00 12.3 9 Noroeste 17 Oeste 0 -- -- 61
2019-06-11 01:00:00 12.9 8 Oeste 26 Oeste 0 -- -- 59
2019-06-11 00:00:00 13.9 14 Noroeste 35 Oeste 0 -- -- 54
2019-06-10 23:00:00 14.8 30 Oeste 41 Oeste 0 -- -- 50
2019-06-10 22:00:00 16.4 18 Noroeste 33 Noroeste 0 -- -- 43
2019-06-10 21:00:00 17.6 24 Oeste 44 Oeste 0 -- -- 39
2019-06-10 20:00:00 20 29 Oeste 42 Oeste 0 -- -- 30
2019-06-10 19:00:00 20.1 28 Sudoeste 39 Sudoeste 0 -- -- 31
2019-06-10 18:00:00 21.8 19 Oeste 35 Oeste 0 -- -- 31
2019-06-10 17:00:00 21.6 14 Sudoeste 35 Sudoeste 0 -- -- 34
2019-06-10 16:00:00 21 18 Oeste 29 Oeste 0 -- -- 32
2019-06-10 15:00:00 19.8 10 Sudoeste 24 Oeste 0 -- -- 37
2019-06-10 14:00:00 18.7 12 Sudoeste 21 Sudoeste 0 -- -- 41
2019-06-10 13:00:00 16.9 9 Oeste 19 Sudoeste 0 -- -- 47
2019-06-10 12:00:00 15.6 6 Sudeste 15 Sudoeste 0 -- -- 52
2019-06-10 11:00:00 13.9 5 Este 19 Este 0 -- -- 62
2019-06-10 10:00:00 12.7 8 Nordeste 19 Este 0 -- -- 71
2019-06-10 09:00:00 11.1 12 Nordeste 19 Nordeste 0 -- -- 79
2019-06-10 08:00:00 8.3 8 Nordeste 12 Nordeste 0 -- -- 91
2019-06-10 07:00:00 7.1 7 Nordeste 13 Este 0 -- -- 92
2019-06-10 06:00:00 7.6 10 Nordeste 14 Este 0 -- -- 91
2019-06-10 05:00:00 7.9 8 Este 11 Este 0 -- -- 88
2019-06-10 04:00:00 8.7 6 Este 10 Nordeste 0 -- -- 85
2019-06-10 03:00:00 9.8 4 Este 13 Nordeste 0 -- -- 76
2019-06-10 02:00:00 10.6 8 Nordeste 12 Nordeste 0 -- -- 69
2019-06-10 01:00:00 11.7 8 Norte 17 Nordeste 0 -- -- 63
2019-06-10 00:00:00 12.1 12 Oeste 19 Oeste 0 -- -- 62
2019-06-09 23:00:00 13.2 16 Oeste 23 Oeste 0 -- -- 58
2019-06-09 22:00:00 15.2 19 Oeste 34 Oeste 0 -- -- 52
2019-06-09 21:00:00 17.4 22 Oeste 41 Oeste 0 -- -- 45
2019-06-09 20:00:00 18.7 29 Oeste 44 Oeste 0 -- -- 42
2019-06-09 19:00:00 20.4 30 Oeste 45 Oeste 0 -- -- 38
2019-06-09 18:00:00 20 35 Oeste 50 Oeste 0 -- -- 38
2019-06-09 17:00:00 21.3 28 Oeste 45 Oeste 0 -- -- 34
2019-06-09 16:00:00 21 24 Oeste 41 Sudoeste 0 -- -- 36
2019-06-09 15:00:00 20.2 24 Oeste 40 Oeste 0 -- -- 35
2019-06-09 14:00:00 19.5 24 Oeste 39 Oeste 0 -- -- 39
2019-06-09 13:00:00 18.3 22 Sudoeste 32 Oeste 0 -- -- 41
2019-06-09 12:00:00 17.2 18 Oeste 31 Oeste 0 -- -- 41
2019-06-09 11:00:00 15.4 17 Oeste 24 Oeste 0 -- -- 46
2019-06-09 10:00:00 13.3 14 Oeste 22 Sudoeste 0 -- -- 64
2019-06-09 09:00:00 10.9 13 Oeste 17 Oeste 0 -- -- 76
2019-06-09 08:00:00 8.6 7 Oeste 17 Oeste 0 -- -- 84
2019-06-09 07:00:00 7.6 15 Oeste 18 Oeste 0 -- -- 85
2019-06-09 06:00:00 8.5 8 Oeste 10 Oeste 0 -- -- 80
2019-06-09 05:00:00 9.6 4 Sudoeste 9 Sudoeste 0 -- -- 76
2019-06-09 04:00:00 9.7 9 Sudoeste 10 Sudoeste 0 -- -- 74
2019-06-09 03:00:00 11.1 13 Oeste 20 Oeste 0 -- -- 69
2019-06-09 02:00:00 12.4 12 Oeste 14 Oeste 0 -- -- 65
2019-06-09 01:00:00 13.8 12 Noroeste 16 Oeste 0 -- -- 58
2019-06-09 00:00:00 14.8 12 Noroeste 21 Noroeste 0 -- -- 53
2019-06-08 23:00:00 15.2 14 Noroeste 20 Noroeste 0 -- -- 48
2019-06-08 22:00:00 16.4 12 Noroeste 28 Oeste 0 -- -- 48
2019-06-08 21:00:00 18.8 13 Oeste 24 Oeste 0 -- -- 39
2019-06-08 20:00:00 20.6 18 Oeste 31 Noroeste 0 -- -- 34
2019-06-08 19:00:00 21.4 12 Oeste 27 Oeste 0 -- -- 31
2019-06-08 18:00:00 22.6 15 Oeste 40 Oeste 0 -- -- 30
2019-06-08 17:00:00 22.5 20 Sudoeste 30 Sudoeste 0 -- -- 29
2019-06-08 16:00:00 21.6 8 Sur 26 Sudoeste 0 -- -- 30
2019-06-08 15:00:00 20.7 7 Este 28 Sur 0 -- -- 33
2019-06-08 14:00:00 19.1 10 Este 25 Este 0 -- -- 37
2019-06-08 13:00:00 17.5 15 Este 32 Este 0 -- -- 43
2019-06-08 12:00:00 16.1 17 Este 27 Este 0 -- -- 46
2019-06-08 11:00:00 14 15 Nordeste 26 Nordeste 0 -- -- 54
2019-06-08 10:00:00 11.6 17 Nordeste 22 Nordeste 0 -- -- 64
2019-06-08 09:00:00 9.4 12 Nordeste 20 Nordeste 0 -- -- 73
2019-06-08 08:00:00 7.1 9 Nordeste 12 Nordeste 0 -- -- 82
2019-06-08 07:00:00 5.1 7 Este 10 Nordeste 0 -- -- 86
2019-06-08 06:00:00 5.3 6 Nordeste 13 Nordeste 0 -- -- 83
2019-06-08 05:00:00 5.9 7 Nordeste 9 Nordeste 0 -- -- 84
2019-06-08 04:00:00 6.5 5 Este 10 Este 0 -- -- 81
2019-06-08 03:00:00 7 7 Este 12 Nordeste 0 -- -- 77
2019-06-08 02:00:00 7.8 10 Norte 15 Norte 0 -- -- 76
2019-06-08 01:00:00 8.3 9 Norte 13 Noroeste 0 -- -- 73
2019-06-08 00:00:00 9.5 13 Noroeste 17 Noroeste 0 -- -- 68
2019-06-07 23:00:00 10.3 14 Noroeste 19 Oeste 0 -- -- 63
2019-06-07 22:00:00 11.3 12 Oeste 23 Oeste 0 -- -- 60
2019-06-07 21:00:00 14.2 17 Oeste 32 Oeste 0 -- -- 51
2019-06-07 20:00:00 15.7 23 Oeste 33 Oeste 0 -- -- 40
2019-06-07 19:00:00 16.3 22 Oeste 33 Oeste 0 -- -- 43
2019-06-07 18:00:00 15.3 15 Oeste 35 Oeste 0 -- -- 46
2019-06-07 17:00:00 15 21 Sudoeste 35 Sudoeste 0 -- -- 45
2019-06-07 16:00:00 15.2 20 Oeste 35 Oeste 0 -- -- 45
2019-06-07 15:00:00 14.9 21 Oeste 40 Sudoeste 0 -- -- 50
2019-06-07 14:00:00 13.4 22 Oeste 39 Oeste 0 -- -- 53
2019-06-07 13:00:00 12.7 23 Oeste 40 Oeste 0 -- -- 57
2019-06-07 12:00:00 11.7 26 Oeste 41 Oeste 0 -- -- 56
2019-06-07 11:00:00 9.3 24 Oeste 41 Oeste 0 -- -- 70
2019-06-07 10:00:00 8.7 33 Oeste 49 Sudoeste 0 -- -- 76
2019-06-07 09:00:00 7.6 34 Oeste 46 Oeste 0 -- -- 83
2019-06-07 08:00:00 6.2 22 Oeste 33 Oeste 0 -- -- 90
2019-06-07 07:00:00 5.5 23 Oeste 39 Sudoeste 0 -- -- 93
2019-06-07 06:00:00 6.4 30 Oeste 41 Sudoeste 0 -- -- 91
2019-06-07 05:00:00 6.6 31 Sudoeste 43 Oeste 0 -- -- 92
2019-06-07 04:00:00 6.6 32 Sudoeste 44 Sudoeste 0 -- -- 93
2019-06-07 03:00:00 6.7 29 Sudoeste 40 Sudoeste 0 -- -- 94
2019-06-07 02:00:00 7.3 29 Sudoeste 39 Sudoeste 0 -- -- 94
2019-06-07 01:00:00 7.3 28 Sudoeste 41 Sudoeste 0 -- -- 94
2019-06-07 00:00:00 7.8 20 Sudoeste 45 Oeste 0 -- -- 95
2019-06-06 23:00:00 8.3 29 Oeste 45 Sudoeste 0 -- -- 95
2019-06-06 22:00:00 9 36 Sudoeste 53 Sudoeste 0.6 -- -- 96
2019-06-06 21:00:00 9.8 42 Oeste 74 Sudoeste 2.6 -- -- 95
2019-06-06 20:00:00 13.2 41 Sudoeste 71 Sudoeste 0.2 -- -- 75
2019-06-06 19:00:00 13.4 43 Sudoeste 66 Sudoeste 0.6 -- -- 71
2019-06-06 18:00:00 15.8 48 Sudoeste 72 Sudoeste 0 -- -- 54
2019-06-06 17:00:00 17.6 44 Sudoeste 70 Sudoeste 0 -- -- 46
2019-06-06 16:00:00 18.2 44 Sudoeste 64 Sudoeste 0 -- -- 41
2019-06-06 15:00:00 18.6 36 Sur 55 Sudoeste 0 -- -- 36
2019-06-06 14:00:00 16.2 30 Sudoeste 54 Sudoeste 0 -- -- 40
2019-06-06 13:00:00 14.4 27 Sudoeste 40 Sudoeste 0 -- -- 44
2019-06-06 12:00:00 13.3 24 Sudoeste 34 Sudoeste 0 -- -- 49
2019-06-06 11:00:00 12.9 17 Sur 25 Sur 0 -- -- 54
2019-06-06 10:00:00 10.8 12 Sur 19 Sur 0 -- -- 65
2019-06-06 09:00:00 8.5 5 Sur 9 Sudoeste 0 -- -- 77
2019-06-06 08:00:00 5.7 5 Sudoeste 10 Sudoeste 0 -- -- 86
2019-06-06 07:00:00 3.8 8 Sudoeste 10 Sudoeste 0 -- -- 86
2019-06-06 06:00:00 4 7 Sudoeste 12 Sudoeste 0 -- -- 87
2019-06-06 05:00:00 4.2 9 Sudoeste 15 Sudoeste 0 -- -- 86
2019-06-06 04:00:00 5.1 9 Sudoeste 19 Oeste 0 -- -- 82
2019-06-06 03:00:00 6.3 17 Oeste 21 Oeste 0 -- -- 76
2019-06-06 02:00:00 6.4 10 Oeste 17 Oeste 0 -- -- 74
2019-06-06 01:00:00 7.1 10 Sudoeste 15 Oeste 0 -- -- 71
2019-06-06 00:00:00 8.1 13 Oeste 27 Oeste 0 -- -- 66
2019-06-05 23:00:00 10.6 17 Oeste 31 Oeste 0 -- -- 55
2019-06-05 22:00:00 11.8 19 Oeste 35 Oeste 0 -- -- 54
2019-06-05 21:00:00 12.7 26 Oeste 36 Oeste 0 -- -- 48
2019-06-05 20:00:00 13.9 28 Oeste 45 Oeste 0 -- -- 44
2019-06-05 19:00:00 14.2 31 Oeste 47 Oeste 0 -- -- 46
2019-06-05 18:00:00 15.8 35 Oeste 48 Sudoeste 0 -- -- 40
2019-06-05 17:00:00 17.1 33 Oeste 48 Oeste 0 -- -- 36
2019-06-05 16:00:00 16.1 27 Oeste 50 Oeste 0 -- -- 42
2019-06-05 15:00:00 15.3 30 Oeste 43 Sudoeste 0 -- -- 44
2019-06-05 14:00:00 15.1 28 Oeste 44 Oeste 0 -- -- 47
2019-06-05 13:00:00 13.9 24 Oeste 46 Oeste 0 -- -- 51
2019-06-05 12:00:00 13.7 33 Oeste 48 Oeste 0 -- -- 53
2019-06-05 11:00:00 13 28 Oeste 42 Oeste 0 -- -- 54
2019-06-05 10:00:00 11.1 27 Oeste 45 Noroeste 0 -- -- 64
2019-06-05 09:00:00 9.1 29 Oeste 38 Oeste 0 -- -- 77
2019-06-05 08:00:00 7.1 24 Oeste 33 Oeste 0 -- -- 89
2019-06-05 07:00:00 6.5 27 Oeste 34 Oeste 0 -- -- 89
2019-06-05 06:00:00 6.1 19 Oeste 28 Oeste 0 -- -- 91
2019-06-05 05:00:00 6.2 23 Oeste 29 Oeste 0 -- -- 89
2019-06-05 04:00:00 7 21 Oeste 32 Oeste 0 -- -- 84
2019-06-05 03:00:00 6.9 18 Sudoeste 27 Oeste 0 -- -- 82
2019-06-05 02:00:00 8.1 18 Oeste 31 Oeste 0 -- -- 77
2019-06-05 01:00:00 9.1 17 Oeste 29 Oeste 0 -- -- 72
2019-06-05 00:00:00 10.6 21 Oeste 34 Oeste 0 -- -- 64
2019-06-04 23:00:00 11.7 13 Oeste 28 Oeste 0 -- -- 60
2019-06-04 22:00:00 14 21 Oeste 36 Oeste 0 -- -- 49
2019-06-04 21:00:00 15.8 22 Oeste 40 Sudoeste 0 -- -- 46
2019-06-04 20:00:00 15.9 28 Oeste 41 Noroeste 0 -- -- 51
2019-06-04 19:00:00 17 27 Oeste 44 Oeste 0 -- -- 52
2019-06-04 18:00:00 18.3 32 Oeste 43 Oeste 0 -- -- 50
2019-06-04 17:00:00 17.2 26 Oeste 44 Oeste 0 -- -- 59
2019-06-04 16:00:00 16.4 32 Oeste 49 Oeste 0 -- -- 67
2019-06-04 15:00:00 17.7 30 Oeste 40 Oeste 0 -- -- 63
2019-06-04 14:00:00 18.7 31 Oeste 44 Oeste 0 -- -- 61
2019-06-04 13:00:00 19.2 25 Sudoeste 36 Oeste 0 -- -- 54
2019-06-04 12:00:00 16.8 24 Sudoeste 37 Sudoeste 0 -- -- 63
2019-06-04 11:00:00 15.4 27 Oeste 40 Oeste 0 -- -- 69
2019-06-04 10:00:00 13.9 31 Oeste 46 Sudoeste 0 -- -- 73
2019-06-04 09:00:00 13 29 Oeste 42 Oeste 0 -- -- 79
2019-06-04 08:00:00 11.6 25 Oeste 38 Oeste 0 -- -- 87
2019-06-04 07:00:00 10.9 25 Oeste 40 Oeste 0 -- -- 88
2019-06-04 06:00:00 11.2 25 Oeste 33 Oeste 0 -- -- 89
2019-06-04 05:00:00 11.1 23 Oeste 31 Oeste 0 -- -- 88
2019-06-04 04:00:00 11.8 21 Oeste 32 Sudoeste 0 -- -- 86
2019-06-04 03:00:00 12.7 23 Sudoeste 29 Oeste 0 -- -- 83
2019-06-04 02:00:00 13.4 22 Oeste 36 Oeste 0 -- -- 82
2019-06-04 01:00:00 14.5 29 Oeste 42 Oeste 0 -- -- 76
2019-06-04 00:00:00 16 25 Oeste 36 Oeste 0 -- -- 70
2019-06-03 23:00:00 17.5 24 Oeste 38 Oeste 0 -- -- 67
2019-06-03 22:00:00 19.5 24 Oeste 38 Oeste 0 -- -- 61
2019-06-03 21:00:00 22.4 26 Oeste 38 Oeste 0 -- -- 55
2019-06-03 20:00:00 25.1 25 Oeste 45 Sudoeste 0 -- -- 48
2019-06-03 19:00:00 27.6 30 Sudoeste 52 Oeste 0 -- -- 37
2019-06-03 18:00:00 26.8 25 Sudoeste 40 Sudoeste 0 -- -- 36
2019-06-03 17:00:00 27.4 24 Sudoeste 46 Oeste 0 -- -- 35
2019-06-03 16:00:00 27.2 30 Oeste 42 Oeste 0 -- -- 35
2019-06-03 15:00:00 26.3 19 Sudoeste 37 Sudoeste 0 -- -- 37
2019-06-03 14:00:00 25.5 19 Oeste 34 Sudoeste 0 -- -- 38
2019-06-03 13:00:00 24.4 18 Oeste 29 Oeste 0 -- -- 41
2019-06-03 12:00:00 22.9 19 Sudoeste 37 Sudoeste 0 -- -- 41
2019-06-03 11:00:00 20.2 15 Oeste 23 Sudoeste 0 -- -- 43
2019-06-03 10:00:00 17.9 17 Oeste 22 Sudoeste 0 -- -- 46
2019-06-03 09:00:00 16.1 13 Sudoeste 18 Sudoeste 0 -- -- 49
2019-06-03 08:00:00 14.7 10 Oeste 19 Oeste 0 -- -- 55
2019-06-03 07:00:00 14.2 15 Oeste 20 Oeste 0 -- -- 55
2019-06-03 06:00:00 13.9 10 Sudoeste 15 Sudoeste 0 -- -- 54
2019-06-03 05:00:00 15.6 13 Oeste 21 Oeste 0 -- -- 47
2019-06-03 04:00:00 16.3 15 Oeste 21 Oeste 0 -- -- 44
2019-06-03 03:00:00 16.8 13 Oeste 24 Oeste 0 -- -- 48
2019-06-03 02:00:00 17 13 Sudoeste 17 Sudoeste 0 -- -- 46
2019-06-03 01:00:00 17.5 11 Oeste 14 Oeste 0 -- -- 42
2019-06-03 00:00:00 18 11 Sudoeste 19 Oeste 0 -- -- 41
2019-06-02 23:00:00 20.3 16 Oeste 24 Oeste 0 -- -- 36
2019-06-02 22:00:00 22 15 Oeste 27 Oeste 0 -- -- 35
2019-06-02 21:00:00 24.1 18 Oeste 32 Oeste 0 -- -- 31
2019-06-02 20:00:00 25.6 19 Oeste 32 Oeste 0 -- -- 28
2019-06-02 19:00:00 28.3 23 Oeste 58 Oeste 0 -- -- 23
2019-06-02 18:00:00 30.1 21 Oeste 40 Oeste 0 -- -- 20
2019-06-02 17:00:00 28.9 24 Oeste 46 Oeste 0 -- -- 21
2019-06-02 16:00:00 29 26 Oeste 43 Sudoeste 0 -- -- 21
2019-06-02 15:00:00 28.2 25 Sudoeste 39 Oeste 0 -- -- 22
2019-06-02 14:00:00 28.4 15 Oeste 33 Oeste 0 -- -- 23
2019-06-02 13:00:00 27 16 Oeste 27 Oeste 0 -- -- 24
2019-06-02 12:00:00 25.6 14 Oeste 24 Oeste 0 -- -- 27
2019-06-02 11:00:00 23.7 17 Oeste 25 Oeste 0 -- -- 30
2019-06-02 10:00:00 21.5 19 Sudoeste 24 Sudoeste 0 -- -- 38
2019-06-02 09:00:00 17.7 12 Sudoeste 14 Sudoeste 0 -- -- 48
2019-06-02 08:00:00 14.5 14 Sudoeste 15 Oeste 0 -- -- 55
2019-06-02 07:00:00 14.5 7 Sudoeste 8 Sudoeste 0 -- -- 56
2019-06-02 06:00:00 16.4 3 Sudoeste 6 Sudoeste 0 -- -- 50
2019-06-02 05:00:00 16.4 3 Sudeste 15 Oeste 0 -- -- 50
2019-06-02 04:00:00 17 15 Oeste 19 Oeste 0 -- -- 47
2019-06-02 03:00:00 17.6 17 Oeste 19 Oeste 0 -- -- 44
2019-06-02 02:00:00 18.9 11 Oeste 17 Oeste 0 -- -- 42
2019-06-02 01:00:00 19.7 15 Oeste 19 Oeste 0 -- -- 39
2019-06-02 00:00:00 21.9 15 Oeste 26 Oeste 0 -- -- 34
2019-06-01 23:00:00 23.9 22 Oeste 30 Oeste 0 -- -- 31
2019-06-01 22:00:00 25.4 20 Oeste 29 Oeste 0 -- -- 32
2019-06-01 21:00:00 28.8 11 Noroeste 24 Oeste 0 -- -- 30
2019-06-01 20:00:00 30.6 17 Oeste 31 Oeste 0 -- -- 25
2019-06-01 19:00:00 32.7 12 Noroeste 30 Oeste 0 -- -- 22
2019-06-01 18:00:00 32 13 Noroeste 30 Oeste 0 -- -- 22
2019-06-01 17:00:00 32.1 9 Sudoeste 26 Sudoeste 0 -- -- 24
2019-06-01 16:00:00 31.2 13 Oeste 35 Oeste 0 -- -- 23
2019-06-01 15:00:00 31.1 16 Oeste 46 Oeste 0 -- -- 22
2019-06-01 14:00:00 30.4 12 Sudoeste 24 Sudoeste 0 -- -- 23
2019-06-01 13:00:00 29.4 7 Sur 15 Sudoeste 0 -- -- 27
2019-06-01 12:00:00 27 6 Sur 14 Sudeste 0 -- -- 31
2019-06-01 11:00:00 24.1 6 Este 13 Este 0 -- -- 38
2019-06-01 10:00:00 21.5 6 Este 11 Este 0 -- -- 43
2019-06-01 09:00:00 18.6 6 Este 10 Este 0 -- -- 47
2019-06-01 08:00:00 16.7 8 Este 11 Este 0 -- -- 48
2019-06-01 07:00:00 15.4 8 Nordeste 9 Nordeste 0 -- -- 45
2019-06-01 06:00:00 16.4 6 Nordeste 10 Sudeste 0 -- -- 42
2019-06-01 05:00:00 16.2 7 Sudeste 12 Nordeste 0 -- -- 47
2019-06-01 04:00:00 16.3 10 Nordeste 24 Nordeste 0 -- -- 49
2019-06-01 03:00:00 21.3 12 Oeste 16 Oeste 0 -- -- 37
2019-06-01 02:00:00 21.6 14 Oeste 22 Oeste 0 -- -- 34
2019-06-01 01:00:00 22.7 11 Oeste 13 Oeste 0 -- -- 31
2019-06-01 00:00:00 23.5 9 Oeste 11 Oeste 0 -- -- 28
2019-05-31 23:00:00 24.9 3 Sudeste 9 Este 0 -- -- 26
2019-05-31 22:00:00 25.6 8 Oeste 11 Oeste 0 -- -- 27
2019-05-31 21:00:00 28.7 9 Oeste 17 Oeste 0 -- -- 25
2019-05-31 20:00:00 30.3 5 Sur 17 Este 0 -- -- 21
2019-05-31 19:00:00 32.7 8 Sudoeste 18 Oeste 0 -- -- 19
2019-05-31 18:00:00 30.8 9 Sudoeste 18 Oeste 0 -- -- 21
2019-05-31 17:00:00 30.5 7 Este 33 Sudoeste 0 -- -- 20
2019-05-31 16:00:00 30 9 Oeste 24 Nordeste 0 -- -- 23
2019-05-31 15:00:00 29.2 8 Norte 19 Sur 0 -- -- 26
2019-05-31 14:00:00 28.2 6 Norte 19 Este 0 -- -- 26
2019-05-31 13:00:00 27.2 10 Este 21 Este 0 -- -- 30
2019-05-31 12:00:00 25.3 13 Este 25 Este 0 -- -- 34
2019-05-31 11:00:00 23.3 13 Nordeste 27 Nordeste 0 -- -- 43
2019-05-31 10:00:00 20.7 18 Nordeste 25 Nordeste 0 -- -- 50
2019-05-31 09:00:00 18.8 13 Nordeste 22 Nordeste 0 -- -- 57
2019-05-31 08:00:00 16.5 18 Nordeste 27 Nordeste 0 -- -- 64
2019-05-31 07:00:00 15.2 18 Nordeste 31 Nordeste 0 -- -- 68
2019-05-31 06:00:00 15.4 21 Nordeste 26 Nordeste 0 -- -- 67
2019-05-31 05:00:00 15.9 16 Nordeste 22 Nordeste 0 -- -- 62
2019-05-31 04:00:00 16.2 13 Nordeste 18 Nordeste 0 -- -- 55
2019-05-31 03:00:00 17.1 9 Nordeste 21 Este 0 -- -- 50
2019-05-31 02:00:00 18.8 11 Este 22 Este 0 -- -- 44
2019-05-31 01:00:00 19.6 12 Este 22 Este 0 -- -- 39
2019-05-31 00:00:00 21 12 Este 18 Sudeste 0 -- -- 36
2019-05-30 23:00:00 21.7 9 Este 14 Este 0 -- -- 34
2019-05-30 22:00:00 23.3 6 Este 12 Este 0 -- -- 32
2019-05-30 21:00:00 26.1 9 Este 24 Este 0 -- -- 28
2019-05-30 20:00:00 27.3 15 Este 27 Este 0 -- -- 26
2019-05-30 19:00:00 29.5 9 Este 32 Este 0 -- -- 23
2019-05-30 18:00:00 28.2 17 Este 31 Este 0 -- -- 25
2019-05-30 17:00:00 27.7 18 Nordeste 32 Este 0 -- -- 27
2019-05-30 16:00:00 27.2 16 Nordeste 27 Este 0 -- -- 27
2019-05-30 15:00:00 25.9 14 Nordeste 28 Nordeste 0 -- -- 28
2019-05-30 14:00:00 24.4 15 Este 29 Este 0 -- -- 31
2019-05-30 13:00:00 22.6 16 Este 31 Este 0 -- -- 38
2019-05-30 12:00:00 20.8 19 Este 28 Este 0 -- -- 45
2019-05-30 11:00:00 19.1 16 Este 24 Este 0 -- -- 50
2019-05-30 10:00:00 17.1 14 Nordeste 25 Nordeste 0 -- -- 53
2019-05-30 09:00:00 14.6 13 Este 22 Nordeste 0 -- -- 64
2019-05-30 08:00:00 12.5 13 Nordeste 23 Nordeste 0 -- -- 72
2019-05-30 07:00:00 10.7 15 Nordeste 23 Nordeste 0 -- -- 78
2019-05-30 06:00:00 11.1 12 Nordeste 21 Nordeste 0 -- -- 76
2019-05-30 05:00:00 11.6 13 Nordeste 17 Nordeste 0 -- -- 74
2019-05-30 04:00:00 12 10 Nordeste 17 Este 0 -- -- 70
2019-05-30 03:00:00 13 12 Este 20 Este 0 -- -- 66
2019-05-30 02:00:00 13.8 9 Este 16 Nordeste 0 -- -- 63
2019-05-30 01:00:00 15.2 12 Este 21 Nordeste 0 -- -- 59
2019-05-30 00:00:00 16.3 9 Este 18 Este 0 -- -- 52
2019-05-29 23:00:00 17.8 13 Este 17 Este 0 -- -- 45
2019-05-29 22:00:00 19.5 9 Este 19 Este 0 -- -- 40
2019-05-29 21:00:00 22.1 13 Este 30 Este 0 -- -- 34
2019-05-29 20:00:00 23.3 16 Este 30 Este 0 -- -- 33
2019-05-29 19:00:00 24.9 18 Este 32 Nordeste 0 -- -- 29
2019-05-29 18:00:00 23.5 18 Este 32 Este 0 -- -- 32
2019-05-29 17:00:00 23.4 16 Nordeste 33 Este 0 -- -- 33
2019-05-29 16:00:00 22.5 18 Nordeste 31 Nordeste 0 -- -- 36
2019-05-29 15:00:00 21.4 15 Nordeste 28 Nordeste 0 -- -- 37
2019-05-29 14:00:00 20.1 17 Este 27 Este 0 -- -- 42
2019-05-29 13:00:00 18.2 16 Este 32 Nordeste 0 -- -- 46
2019-05-29 12:00:00 16.3 19 Este 32 Este 0 -- -- 50
2019-05-29 11:00:00 14.1 19 Este 32 Este 0 -- -- 54
2019-05-29 10:00:00 12.7 20 Este 29 Este 0 -- -- 59
2019-05-29 09:00:00 10.7 15 Este 22 Este 0 -- -- 68
2019-05-29 08:00:00 8.4 12 Este 19 Este 0 -- -- 76
2019-05-29 07:00:00 6.8 11 Nordeste 20 Este 0 -- -- 80
2019-05-29 06:00:00 7 12 Este 24 Este 0 -- -- 78
2019-05-29 05:00:00 7.3 10 Este 22 Este 0 -- -- 77
2019-05-29 04:00:00 8.2 15 Este 25 Nordeste 0 -- -- 72
2019-05-29 03:00:00 8.9 15 Este 31 Este 0 -- -- 66
2019-05-29 02:00:00 10.5 22 Este 32 Este 0 -- -- 60
2019-05-29 01:00:00 11.6 13 Nordeste 36 Nordeste 0 -- -- 57
2019-05-29 00:00:00 13.6 22 Nordeste 38 Nordeste 0 -- -- 53
2019-05-28 23:00:00 15.6 25 Nordeste 36 Nordeste 0 -- -- 45
2019-05-28 22:00:00 17.3 20 Nordeste 40 Nordeste 0 -- -- 40
2019-05-28 21:00:00 19.6 27 Nordeste 43 Nordeste 0 -- -- 37
2019-05-28 20:00:00 22.3 25 Nordeste 38 Nordeste 0 -- -- 32
2019-05-28 19:00:00 26 10 Norte 24 Nordeste 0 -- -- 27
2019-05-28 18:00:00 24 6 Este 21 Norte 0 -- -- 29
2019-05-28 17:00:00 23.3 12 Norte 28 Nordeste 0 -- -- 30
2019-05-28 16:00:00 22.1 16 Nordeste 26 Este 0 -- -- 32
2019-05-28 15:00:00 21.3 15 Norte 27 Este 0 -- -- 33
2019-05-28 14:00:00 19.2 13 Nordeste 32 Este 0 -- -- 38
2019-05-28 13:00:00 17.9 14 Este 27 Este 0 -- -- 42
2019-05-28 12:00:00 15.8 16 Este 33 Este 0 -- -- 50
2019-05-28 11:00:00 13.7 19 Nordeste 33 Nordeste 0 -- -- 57
2019-05-28 10:00:00 12.5 18 Este 34 Este 0 -- -- 64
2019-05-28 09:00:00 10.5 23 Este 35 Este 0 -- -- 70
2019-05-28 08:00:00 8.9 17 Nordeste 26 Nordeste 0 -- -- 78
2019-05-28 07:00:00 7.6 19 Nordeste 26 Nordeste 0 -- -- 83
2019-05-28 06:00:00 8.1 16 Nordeste 25 Nordeste 0 -- -- 82
2019-05-28 05:00:00 8.8 16 Nordeste 29 Este 0 -- -- 82
2019-05-28 04:00:00 9.6 18 Nordeste 36 Este 0 -- -- 81
2019-05-28 03:00:00 10.7 15 Este 32 Nordeste 0 -- -- 79
2019-05-28 02:00:00 12 21 Nordeste 43 Nordeste 0 -- -- 75
2019-05-28 01:00:00 14 25 Nordeste 39 Este 0 -- -- 70
2019-05-28 00:00:00 15.7 19 Nordeste 35 Nordeste 0 -- -- 51